createdAt,value
2017-10-21T00:01:50.135Z,11.30
2017-10-21T00:04:18.235Z,11.30
2017-10-21T00:06:47.096Z,11.30
2017-10-21T00:09:15.204Z,11.30
2017-10-21T00:11:44.055Z,10.90
2017-10-21T00:14:12.143Z,10.80
2017-10-21T00:16:40.224Z,10.80
2017-10-21T00:19:08.306Z,10.60
2017-10-21T00:21:36.389Z,10.50
2017-10-21T00:24:05.264Z,10.40
2017-10-21T00:26:33.339Z,10.40
2017-10-21T00:29:01.415Z,10.30
2017-10-21T00:31:29.488Z,10.20
2017-10-21T00:33:57.575Z,10.20
2017-10-21T00:36:26.433Z,10.30
2017-10-21T00:38:54.524Z,10.30
2017-10-21T00:41:22.607Z,10.30
2017-10-21T00:43:51.466Z,10.20
2017-10-21T00:46:19.552Z,10.10
2017-10-21T00:48:47.631Z,10.20
2017-10-21T00:51:15.705Z,10.20
2017-10-21T00:53:43.796Z,10.30
2017-10-21T00:56:12.728Z,10.50
2017-10-21T00:58:40.827Z,10.50
2017-10-21T01:01:08.909Z,10.50
2017-10-21T01:03:36.995Z,10.60
2017-10-21T01:06:05.831Z,10.50
2017-10-21T01:08:34.687Z,10.40
2017-10-21T01:11:03.537Z,10.40
2017-10-21T01:13:31.621Z,10.40
2017-10-21T01:15:59.697Z,10.20
2017-10-21T01:18:27.994Z,10.10
2017-10-21T01:20:56.837Z,10.10
2017-10-21T01:23:24.915Z,10.10
2017-10-21T01:25:52.996Z,10.10
2017-10-21T01:28:21.068Z,10.00
2017-10-21T01:30:49.153Z,10.10
2017-10-21T01:33:17.228Z,10.10
2017-10-21T01:35:45.315Z,10.00
2017-10-21T01:38:13.395Z,10.00
2017-10-21T01:40:42.243Z,10.00
2017-10-21T01:43:10.337Z,10.00
2017-10-21T01:45:38.415Z,9.90
2017-10-21T01:48:06.484Z,9.90
2017-10-21T01:50:34.564Z,9.80
2017-10-21T01:53:02.652Z,9.90
2017-10-21T01:55:31.512Z,10.00
2017-10-21T01:57:59.588Z,10.00
2017-10-21T02:00:27.684Z,10.00
2017-10-21T02:02:56.527Z,10.00
2017-10-21T02:05:25.375Z,10.10
2017-10-21T02:07:54.215Z,10.10
2017-10-21T02:10:22.300Z,10.10
2017-10-21T02:12:50.372Z,10.10
2017-10-21T02:15:18.454Z,10.10
2017-10-21T02:17:46.525Z,10.20
2017-10-21T02:20:14.612Z,10.10
2017-10-21T02:22:42.695Z,10.10
2017-10-21T02:25:11.549Z,10.00
2017-10-21T02:27:39.619Z,10.00
2017-10-21T02:30:07.712Z,10.00
2017-10-21T02:32:35.787Z,10.00
2017-10-21T02:35:03.860Z,10.10
2017-10-21T02:37:31.932Z,10.20
2017-10-21T02:40:00.020Z,10.10
2017-10-21T02:42:28.872Z,10.20
2017-10-21T02:44:56.952Z,10.20
2017-10-21T02:47:25.039Z,10.20
2017-10-21T02:49:53.112Z,10.20
2017-10-21T02:52:21.196Z,10.20
2017-10-21T02:54:50.047Z,10.20
2017-10-21T02:57:18.121Z,10.20
2017-10-21T02:59:46.209Z,10.20
2017-10-21T03:02:14.292Z,10.30
2017-10-21T03:04:42.363Z,10.30
2017-10-21T03:07:10.447Z,10.30
2017-10-21T03:09:38.527Z,10.20
2017-10-21T03:12:07.380Z,10.20
2017-10-21T03:14:35.468Z,10.10
2017-10-21T03:17:03.536Z,10.10
2017-10-21T03:19:31.628Z,10.10
2017-10-21T03:21:59.704Z,10.20
2017-10-21T03:24:28.551Z,10.20
2017-10-21T03:26:56.620Z,10.20
2017-10-21T03:29:24.708Z,10.20
2017-10-21T03:31:52.779Z,10.10
2017-10-21T03:34:20.864Z,10.10
2017-10-21T03:36:48.932Z,10.00
2017-10-21T03:39:17.007Z,10.00
2017-10-21T03:41:45.080Z,9.90
2017-10-21T03:44:13.161Z,10.00
2017-10-21T03:46:41.235Z,10.00
2017-10-21T03:49:09.317Z,10.00
2017-10-21T03:51:37.389Z,10.10
2017-10-21T03:54:06.299Z,10.00
2017-10-21T03:56:35.141Z,10.00
2017-10-21T03:59:03.223Z,10.00
2017-10-21T04:01:31.312Z,10.00
2017-10-21T04:03:59.371Z,9.90
2017-10-21T04:06:27.459Z,10.00
2017-10-21T04:08:56.316Z,10.10
2017-10-21T04:11:24.420Z,10.10
2017-10-21T04:13:52.496Z,10.10
2017-10-21T04:16:21.352Z,10.10
2017-10-21T04:18:49.428Z,10.10
2017-10-21T04:21:17.512Z,10.10
2017-10-21T04:23:45.596Z,10.10
2017-10-21T04:26:13.680Z,10.10
2017-10-21T04:28:42.532Z,10.00
2017-10-21T04:31:10.623Z,10.00
2017-10-21T04:33:38.696Z,10.10
2017-10-21T04:36:06.781Z,10.10
2017-10-21T04:38:34.855Z,10.10
2017-10-21T04:41:02.950Z,10.10
2017-10-21T04:43:31.785Z,10.00
2017-10-21T04:45:59.893Z,10.00
2017-10-21T04:48:27.969Z,10.00
2017-10-21T04:50:56.824Z,10.10
2017-10-21T04:53:24.896Z,10.00
2017-10-21T04:55:52.972Z,10.10
2017-10-21T04:58:21.051Z,10.10
2017-10-21T05:00:49.142Z,10.10
2017-10-21T05:03:17.215Z,10.20
2017-10-21T05:05:45.304Z,10.20
2017-10-21T05:08:14.144Z,10.20
2017-10-21T05:10:42.221Z,10.20
2017-10-21T05:13:10.309Z,10.20
2017-10-21T05:15:38.391Z,10.20
2017-10-21T05:18:06.465Z,10.20
2017-10-21T05:20:34.557Z,10.30
2017-10-21T05:23:03.407Z,10.20
2017-10-21T05:25:31.492Z,10.20
2017-10-21T05:27:59.564Z,10.30
2017-10-21T05:30:27.649Z,10.30
2017-10-21T05:32:55.721Z,10.30
2017-10-21T05:35:23.796Z,10.20
2017-10-21T05:37:51.879Z,10.20
2017-10-21T05:40:20.732Z,10.10
2017-10-21T05:42:48.804Z,10.10
2017-10-21T05:45:16.908Z,10.10
2017-10-21T05:47:44.980Z,10.10
2017-10-21T05:50:13.059Z,10.10
2017-10-21T05:52:41.908Z,10.10
2017-10-21T05:55:09.992Z,10.10
2017-10-21T05:57:38.076Z,10.10
2017-10-21T06:00:06.170Z,10.10
2017-10-21T06:02:35.631Z,10.10
2017-10-21T06:05:03.778Z,10.10
2017-10-21T06:07:31.845Z,10.10
2017-10-21T06:09:59.934Z,10.10
2017-10-21T06:12:28.015Z,10.00
2017-10-21T06:14:56.097Z,9.90
2017-10-21T06:17:24.178Z,9.90
2017-10-21T06:19:52.282Z,9.90
2017-10-21T06:22:21.127Z,10.00
2017-10-21T06:24:49.221Z,10.00
2017-10-21T06:27:17.302Z,10.00
2017-10-21T06:29:45.384Z,10.00
2017-10-21T06:32:13.468Z,10.10
2017-10-21T06:34:42.335Z,10.20
2017-10-21T06:37:10.436Z,10.20
2017-10-21T06:39:39.281Z,10.30
2017-10-21T06:42:07.391Z,10.30
2017-10-21T06:44:36.252Z,10.40
2017-10-21T06:47:04.343Z,10.30
2017-10-21T06:49:32.416Z,10.40
2017-10-21T06:52:00.500Z,10.40
2017-10-21T06:54:29.344Z,10.40
2017-10-21T06:56:57.427Z,10.40
2017-10-21T06:59:25.522Z,10.40
2017-10-21T07:01:53.603Z,10.50
2017-10-21T07:04:22.436Z,10.60
2017-10-21T07:06:50.524Z,10.50
2017-10-21T07:09:18.592Z,10.50
2017-10-21T07:11:46.679Z,10.60
2017-10-21T07:14:14.753Z,10.60
2017-10-21T07:16:42.852Z,10.70
2017-10-21T07:19:10.928Z,10.70
2017-10-21T07:21:39.009Z,10.80
2017-10-21T07:24:07.864Z,10.90
2017-10-21T07:26:35.946Z,10.80
2017-10-21T07:29:04.024Z,10.90
2017-10-21T07:31:32.104Z,10.90
2017-10-21T07:34:00.199Z,10.80
2017-10-21T07:36:29.058Z,10.90
2017-10-21T07:38:57.139Z,10.90
2017-10-21T07:41:25.228Z,10.90
2017-10-21T07:43:54.072Z,11.00
2017-10-21T07:46:22.164Z,11.00
2017-10-21T07:48:50.249Z,10.90
2017-10-21T07:51:18.334Z,11.00
2017-10-21T07:53:47.188Z,11.10
2017-10-21T07:56:15.284Z,11.10
2017-10-21T07:58:43.360Z,11.10
2017-10-21T08:01:11.457Z,11.10
2017-10-21T08:03:40.295Z,11.20
2017-10-21T08:06:08.391Z,11.30
2017-10-21T08:08:36.473Z,11.30
2017-10-21T08:11:04.569Z,11.40
2017-10-21T08:13:32.670Z,11.40
2017-10-21T08:16:00.763Z,11.60
2017-10-21T08:18:28.841Z,11.80
2017-10-21T08:20:57.009Z,11.90
2017-10-21T08:23:25.085Z,12.10
2017-10-21T08:25:53.164Z,12.10
2017-10-21T08:28:21.241Z,12.30
2017-10-21T08:30:49.318Z,12.50
2017-10-21T08:33:17.397Z,12.60
2017-10-21T08:35:45.484Z,12.70
2017-10-21T08:38:14.321Z,13.00
2017-10-21T08:40:42.408Z,13.00
2017-10-21T08:43:10.506Z,13.20
2017-10-21T08:45:38.628Z,13.20
2017-10-21T08:48:06.714Z,13.30
2017-10-21T08:50:34.817Z,13.60
2017-10-21T08:53:02.899Z,13.60
2017-10-21T08:55:30.980Z,13.60
2017-10-21T08:57:59.060Z,13.70
2017-10-21T09:00:27.926Z,14.00
2017-10-21T09:02:56.024Z,14.00
2017-10-21T09:05:24.874Z,14.00
2017-10-21T09:07:52.969Z,14.00
2017-10-21T09:10:21.057Z,14.10
2017-10-21T09:12:49.912Z,14.30
2017-10-21T09:15:18.020Z,14.30
2017-10-21T09:17:47.109Z,14.40
2017-10-21T09:20:15.189Z,14.40
2017-10-21T09:22:44.057Z,14.60
2017-10-21T09:25:12.145Z,14.60
2017-10-21T09:27:40.228Z,14.70
2017-10-21T09:30:09.082Z,14.80
2017-10-21T09:32:37.145Z,14.80
2017-10-21T09:35:05.232Z,14.80
2017-10-21T09:37:33.324Z,14.80
2017-10-21T09:40:02.174Z,14.80
2017-10-21T09:42:30.251Z,14.80
2017-10-21T09:44:58.328Z,14.90
2017-10-21T09:47:26.402Z,15.00
2017-10-21T09:49:54.472Z,15.10
2017-10-21T09:52:22.544Z,15.10
2017-10-21T09:54:50.616Z,15.10
2017-10-21T09:57:18.713Z,15.10
2017-10-21T09:59:46.792Z,15.10
2017-10-21T10:02:14.888Z,15.10
2017-10-21T10:04:43.780Z,15.10
2017-10-21T10:07:12.616Z,15.10
2017-10-21T10:09:40.691Z,15.10
2017-10-21T10:12:08.766Z,15.10
2017-10-21T10:14:36.837Z,15.10
2017-10-21T10:17:04.906Z,15.10
2017-10-21T10:19:32.985Z,15.10
2017-10-21T10:22:01.050Z,15.20
2017-10-21T10:24:29.133Z,15.20
2017-10-21T10:26:57.192Z,15.20
2017-10-21T10:29:25.270Z,15.20
2017-10-21T10:31:53.365Z,15.30
2017-10-21T10:34:21.461Z,15.30
2017-10-21T10:36:50.296Z,15.40
2017-10-21T10:39:18.359Z,15.40
2017-10-21T10:41:46.441Z,15.40
2017-10-21T10:44:14.519Z,15.40
2017-10-21T10:46:42.595Z,15.50
2017-10-21T10:49:10.668Z,15.50
2017-10-21T10:51:38.755Z,15.50
2017-10-21T10:54:06.829Z,15.50
2017-10-21T10:56:34.912Z,15.50
2017-10-21T10:59:02.971Z,15.50
2017-10-21T11:01:31.044Z,15.50
2017-10-21T11:03:59.115Z,15.50
2017-10-21T11:06:27.200Z,15.50
2017-10-21T11:08:55.265Z,15.50
2017-10-21T11:11:23.372Z,15.60
2017-10-21T11:13:52.208Z,15.50
2017-10-21T11:16:20.280Z,15.50
2017-10-21T11:18:48.364Z,15.50
2017-10-21T11:21:16.444Z,15.50
2017-10-21T11:23:44.517Z,15.50
2017-10-21T11:26:12.588Z,15.50
2017-10-21T11:28:40.678Z,15.50
2017-10-21T11:31:08.761Z,15.50
2017-10-21T11:33:37.620Z,15.60
2017-10-21T11:36:05.685Z,15.60
2017-10-21T11:38:33.759Z,15.60
2017-10-21T11:41:01.835Z,15.60
2017-10-21T11:43:29.970Z,15.70
2017-10-21T11:45:58.036Z,15.70
2017-10-21T11:48:26.121Z,15.80
2017-10-21T11:50:54.970Z,15.90
2017-10-21T11:53:23.056Z,15.90
2017-10-21T11:55:51.913Z,15.90
2017-10-21T11:58:19.997Z,15.90
2017-10-21T12:00:48.100Z,16.00
2017-10-21T12:03:16.163Z,16.00
2017-10-21T12:05:45.018Z,16.10
2017-10-21T12:08:13.109Z,16.10
2017-10-21T12:10:41.200Z,16.10
2017-10-21T12:13:10.072Z,16.30
2017-10-21T12:15:38.155Z,16.30
2017-10-21T12:18:07.000Z,16.30
2017-10-21T12:20:35.100Z,16.30
2017-10-21T12:23:03.181Z,16.40
2017-10-21T12:25:31.300Z,16.40
2017-10-21T12:27:59.436Z,16.50
2017-10-21T12:30:28.308Z,16.70
2017-10-21T12:32:56.399Z,16.70
2017-10-21T12:35:25.306Z,17.00
2017-10-21T12:37:54.172Z,17.00
2017-10-21T12:40:22.278Z,17.00
2017-10-21T12:42:50.382Z,17.20
2017-10-21T12:45:18.476Z,17.30
2017-10-21T12:47:46.575Z,17.40
2017-10-21T12:50:14.640Z,17.50
2017-10-21T12:52:42.809Z,17.60
2017-10-21T12:55:12.624Z,17.70
2017-10-21T12:57:40.721Z,17.70
2017-10-21T13:00:09.567Z,17.80
2017-10-21T13:02:37.640Z,17.80
2017-10-21T13:05:05.732Z,17.90
2017-10-21T13:07:33.808Z,18.00
2017-10-21T13:10:01.888Z,17.90
2017-10-21T13:12:29.961Z,17.80
2017-10-21T13:14:58.048Z,17.80
2017-10-21T13:17:26.893Z,17.80
2017-10-21T13:19:54.975Z,17.80
2017-10-21T13:22:23.048Z,17.70
2017-10-21T13:24:51.133Z,17.70
2017-10-21T13:27:19.191Z,17.70
2017-10-21T13:29:47.315Z,17.70
2017-10-21T13:32:15.401Z,17.80
2017-10-21T13:34:43.480Z,17.80
2017-10-21T13:37:11.549Z,17.80
2017-10-21T13:39:39.624Z,17.80
2017-10-21T13:42:07.724Z,17.70
2017-10-21T13:44:35.803Z,17.70
2017-10-21T13:47:03.902Z,17.70
2017-10-21T13:49:32.739Z,17.70
2017-10-21T13:52:01.580Z,17.70
2017-10-21T13:54:30.423Z,17.70
2017-10-21T13:56:58.502Z,17.70
2017-10-21T13:59:26.581Z,17.70
2017-10-21T14:01:54.688Z,17.70
2017-10-21T14:04:23.567Z,17.60
2017-10-21T14:06:51.651Z,17.60
2017-10-21T14:09:19.732Z,17.70
2017-10-21T14:11:48.577Z,17.70
2017-10-21T14:14:16.665Z,17.70
2017-10-21T14:16:44.736Z,17.70
2017-10-21T14:19:12.813Z,17.60
2017-10-21T14:21:40.884Z,17.70
2017-10-21T14:24:08.964Z,17.70
2017-10-21T14:26:37.038Z,17.70
2017-10-21T14:29:05.104Z,17.80
2017-10-21T14:31:33.168Z,17.80
2017-10-21T14:34:01.267Z,17.80
2017-10-21T14:36:30.108Z,17.80
2017-10-21T14:38:58.177Z,17.80
2017-10-21T14:41:26.256Z,17.80
2017-10-21T14:43:54.342Z,17.80
2017-10-21T14:46:22.420Z,17.80
2017-10-21T14:48:50.489Z,17.80
2017-10-21T14:51:18.626Z,17.70
2017-10-21T14:53:46.684Z,17.60
2017-10-21T14:56:15.533Z,17.70
2017-10-21T14:58:43.607Z,17.70
2017-10-21T15:01:11.681Z,17.70
2017-10-21T15:03:39.768Z,17.70
2017-10-21T15:06:07.845Z,17.70
2017-10-21T15:08:35.904Z,17.70
2017-10-21T15:11:04.006Z,17.70
2017-10-21T15:13:32.864Z,17.70
2017-10-21T15:16:00.952Z,17.70
2017-10-21T15:18:29.822Z,17.70
2017-10-21T15:20:57.905Z,17.60
2017-10-21T15:23:25.997Z,17.70
2017-10-21T15:25:54.851Z,17.70
2017-10-21T15:28:22.948Z,17.60
2017-10-21T15:30:51.814Z,17.60
2017-10-21T15:33:19.897Z,17.60
2017-10-21T15:35:47.985Z,17.60
2017-10-21T15:38:16.464Z,17.60
2017-10-21T15:40:44.540Z,17.60
2017-10-21T15:43:12.673Z,17.60
2017-10-21T15:45:40.766Z,17.60
2017-10-21T15:48:08.857Z,17.60
2017-10-21T15:50:37.722Z,17.40
2017-10-21T15:53:05.805Z,17.40
2017-10-21T15:55:33.893Z,17.40
2017-10-21T15:58:01.985Z,17.40
2017-10-21T16:00:30.856Z,17.50
2017-10-21T16:02:59.742Z,17.40
2017-10-21T16:05:27.829Z,17.40
2017-10-21T16:07:56.678Z,17.20
2017-10-21T16:10:24.782Z,17.20
2017-10-21T16:12:52.861Z,17.20
2017-10-21T16:15:20.939Z,17.10
2017-10-21T16:17:49.797Z,17.10
2017-10-21T16:20:17.911Z,17.10
2017-10-21T16:22:46.757Z,17.10
2017-10-21T16:25:14.851Z,17.10
2017-10-21T16:27:42.936Z,17.00
2017-10-21T16:30:11.027Z,16.90
2017-10-21T16:32:39.869Z,16.90
2017-10-21T16:35:07.972Z,16.80
2017-10-21T16:37:36.061Z,16.90
2017-10-21T16:40:04.938Z,16.90
2017-10-21T16:42:33.816Z,16.80
2017-10-21T16:45:02.201Z,16.80
2017-10-21T16:47:30.289Z,16.80
2017-10-21T16:49:59.141Z,16.80
2017-10-21T16:52:27.241Z,16.70
2017-10-21T16:54:55.334Z,16.80
2017-10-21T16:57:24.212Z,16.70
2017-10-21T16:59:52.292Z,16.70
2017-10-21T17:02:21.156Z,16.70
2017-10-21T17:04:49.242Z,16.70
2017-10-21T17:07:17.340Z,16.70
2017-10-21T17:09:46.180Z,16.60
2017-10-21T17:12:14.264Z,16.60
2017-10-21T17:14:42.460Z,16.70
2017-10-21T17:17:11.341Z,16.70
2017-10-21T17:19:39.437Z,16.60
2017-10-21T17:22:08.289Z,16.60
2017-10-21T17:24:36.385Z,16.60
2017-10-21T17:27:04.477Z,16.60
2017-10-21T17:29:33.345Z,16.60
2017-10-21T17:32:02.196Z,16.60
2017-10-21T17:34:30.528Z,16.60
2017-10-21T17:36:59.391Z,16.50
2017-10-21T17:39:27.480Z,16.50
2017-10-21T17:41:55.561Z,16.40
2017-10-21T17:44:24.426Z,16.40
2017-10-21T17:46:52.525Z,16.40
2017-10-21T17:49:21.389Z,16.20
2017-10-21T17:51:49.499Z,16.20
2017-10-21T17:54:18.357Z,16.20
2017-10-21T17:56:46.481Z,16.20
2017-10-21T17:59:14.581Z,16.30
2017-10-21T18:01:42.693Z,16.20
2017-10-21T18:04:10.765Z,16.20
2017-10-21T18:06:38.864Z,16.20
2017-10-21T18:09:06.954Z,16.20
2017-10-21T18:11:35.077Z,16.20
2017-10-21T18:14:03.177Z,16.20
2017-10-21T18:16:32.033Z,16.20
2017-10-21T18:19:00.113Z,16.10
2017-10-21T18:21:28.205Z,16.20
2017-10-21T18:23:57.052Z,16.10
2017-10-21T18:26:25.149Z,16.10
2017-10-21T18:28:53.231Z,16.10
2017-10-21T18:31:21.337Z,16.00
2017-10-21T18:33:49.433Z,16.00
2017-10-21T18:36:17.544Z,16.00
2017-10-21T18:38:45.625Z,15.90
2017-10-21T18:41:14.476Z,15.80
2017-10-21T18:43:42.594Z,15.80
2017-10-21T18:46:11.449Z,15.70
2017-10-21T18:48:39.535Z,15.80
2017-10-21T18:51:07.616Z,15.80
2017-10-21T18:53:35.709Z,15.80
2017-10-21T18:56:04.557Z,15.80
2017-10-21T18:58:32.673Z,15.80
2017-10-21T19:01:01.517Z,15.80
2017-10-21T19:03:29.603Z,15.70
2017-10-21T19:05:57.703Z,15.80
2017-10-21T19:08:25.776Z,15.70
2017-10-21T19:10:54.640Z,15.70
2017-10-21T19:13:22.740Z,15.70
2017-10-21T19:15:51.609Z,15.60
2017-10-21T19:18:19.695Z,15.60
2017-10-21T19:20:47.791Z,15.60
2017-10-21T19:23:16.637Z,15.50
2017-10-21T19:25:44.749Z,15.50
2017-10-21T19:28:13.604Z,15.60
2017-10-21T19:30:41.677Z,15.50
2017-10-21T19:33:09.761Z,15.60
2017-10-21T19:35:37.844Z,15.50
2017-10-21T19:38:06.725Z,15.20
2017-10-21T19:40:34.821Z,15.20
2017-10-21T19:43:03.665Z,14.80
2017-10-21T19:45:31.808Z,14.70
2017-10-21T19:47:59.901Z,14.70
2017-10-21T19:50:28.860Z,14.50
2017-10-21T19:52:56.949Z,14.50
2017-10-21T19:55:25.025Z,14.40
2017-10-21T19:57:53.121Z,14.40
2017-10-21T20:00:21.187Z,14.30
2017-10-21T20:02:49.294Z,14.30
2017-10-21T20:05:17.383Z,14.20
2017-10-21T20:07:46.254Z,14.10
2017-10-21T20:10:14.344Z,14.10
2017-10-21T20:12:43.199Z,14.10
2017-10-21T20:15:11.285Z,14.10
2017-10-21T20:17:40.160Z,14.10
2017-10-21T20:20:08.234Z,14.00
2017-10-21T20:22:36.328Z,14.10
2017-10-21T20:25:04.420Z,14.00
2017-10-21T20:27:33.265Z,14.00
2017-10-21T20:30:01.341Z,13.90
2017-10-21T20:32:29.427Z,14.00
2017-10-21T20:34:57.557Z,13.90
2017-10-21T20:37:25.636Z,13.90
2017-10-21T20:39:53.738Z,13.80
2017-10-21T20:42:21.828Z,13.80
2017-10-21T20:44:49.921Z,13.70
2017-10-21T20:47:18.765Z,13.80
2017-10-21T20:49:46.868Z,13.80
2017-10-21T20:52:14.949Z,13.80
2017-10-21T20:54:43.828Z,13.80
2017-10-21T20:57:11.921Z,13.80
2017-10-21T20:59:40.781Z,13.80
2017-10-21T21:02:08.873Z,13.80
2017-10-21T21:04:36.947Z,13.80
2017-10-21T21:07:05.818Z,13.80
2017-10-21T21:09:33.902Z,13.80
2017-10-21T21:12:01.991Z,13.60
2017-10-21T21:14:30.932Z,13.70
2017-10-21T21:16:59.028Z,13.60
2017-10-21T21:19:27.121Z,13.60
2017-10-21T21:21:55.976Z,13.50
2017-10-21T21:24:24.064Z,13.40
2017-10-21T21:26:52.160Z,13.40
2017-10-21T21:29:21.013Z,13.30
2017-10-21T21:31:49.105Z,13.30
2017-10-21T21:34:17.180Z,13.30
2017-10-21T21:36:45.280Z,13.40
2017-10-21T21:39:13.380Z,13.30
2017-10-21T21:41:42.220Z,13.20
2017-10-21T21:44:10.309Z,13.20
2017-10-21T21:46:39.163Z,13.10
2017-10-21T21:49:07.264Z,13.10
2017-10-21T21:51:36.131Z,13.10
2017-10-21T21:54:04.231Z,13.10
2017-10-21T21:56:33.118Z,13.10
2017-10-21T21:59:02.005Z,13.00
2017-10-21T22:01:30.079Z,13.00
2017-10-21T22:03:58.167Z,13.00
2017-10-21T22:06:27.028Z,13.10
2017-10-21T22:08:55.140Z,13.10
2017-10-21T22:11:23.237Z,13.20
2017-10-21T22:13:51.361Z,13.20
2017-10-21T22:16:19.445Z,13.10
2017-10-21T22:18:48.296Z,13.00
2017-10-21T22:21:16.402Z,13.00
2017-10-21T22:23:45.265Z,12.90
2017-10-21T22:26:13.368Z,12.90
2017-10-21T22:28:41.454Z,12.80
2017-10-21T22:31:10.313Z,12.90
2017-10-21T22:33:38.418Z,12.80
2017-10-21T22:36:07.270Z,12.80
2017-10-21T22:38:35.365Z,12.80
2017-10-21T22:41:03.476Z,12.80
2017-10-21T22:43:31.574Z,12.90
2017-10-21T22:45:59.666Z,12.80
2017-10-21T22:48:27.807Z,12.70
2017-10-21T22:50:55.914Z,12.70
2017-10-21T22:53:24.012Z,12.70
2017-10-21T22:55:52.136Z,12.80
2017-10-21T22:58:20.258Z,12.90
2017-10-21T23:00:49.132Z,13.00
2017-10-21T23:03:17.580Z,13.00
2017-10-21T23:05:45.672Z,13.00
2017-10-21T23:08:13.795Z,13.10
2017-10-21T23:10:41.893Z,13.20
2017-10-21T23:13:09.979Z,13.20
2017-10-21T23:15:38.088Z,13.20
2017-10-21T23:18:06.192Z,13.20
2017-10-21T23:20:34.295Z,13.20
2017-10-21T23:23:02.409Z,13.10
2017-10-21T23:25:31.323Z,13.20
2017-10-21T23:27:59.452Z,13.10
2017-10-21T23:30:27.570Z,13.00
2017-10-21T23:32:56.425Z,13.00
2017-10-21T23:35:24.551Z,13.00
2017-10-21T23:37:53.262Z,12.90
2017-10-21T23:40:21.376Z,12.80
2017-10-21T23:42:50.235Z,12.70
2017-10-21T23:45:18.338Z,12.60
2017-10-21T23:47:47.205Z,12.50
2017-10-21T23:50:15.304Z,12.50
2017-10-21T23:52:43.383Z,12.60
2017-10-21T23:55:12.240Z,12.50
2017-10-21T23:57:40.339Z,12.50
